X Fechar
foto

X Fechar
foto
Clique e saiba mais
Clique e saiba mais
Clique e saiba mais
Clique e saiba mais
Clique e saiba mais
Clique e saiba mais

Edgers Racing

KTM Sacramento

Toro Sports

SP Race Park

JPS Racing

MotoX Pneus

Arenafama

Clique e saiba mais

> Notícias > Últimas Notícias

MXGP 2019: Resultados e Vídeos da 8ª etapa na França. Gajser repete vitória
Publicado em: 27/05/2019

Tim Gajser conquista mais uma dupla vitória e encosta em Antonio Cairoli na pontuação
RedaçãoMotoX.com.br: Lucidio Arruda - Fotos: Bavo Swgjers / Ray Archer

Italiano teve segunda bateria desastrosa em final de semana complicado


Tim Gajser

A disputa pelo título mundial 2019 na classe MXGP voltou a pegar fogo com a oitava etapa da temporada na França. Tim Gajser venceu as duas baterias e a diferença em relação a Antonio Cairoli despencou para apenas 10 pontos. Cairoli foi segundo colocado atrás de Gajser na primeira bateria, mas enfrentou diversos problemas na segunda bateria, que começaram logo ao (não) cair o gate.

Diversos pilotos reclamaram de "inconsistências" no gate de largada neste domingo e Cairoli foi um deles ao ficar preso na largada da segunda bateria. O italiano não fez uma recuperação perfeita, caiu duas vezes e completou a corrida com apenas 4 pontos da 17ª posição. Na frente Tim Gajser superou Romain Febvre após uma grande batalha.

Vídeos









Resultados

P # MXGP Race1 País Bike Time V Diff Gap M.V. Speed
1 243 Gajser, Tim SLO Hon 34:13.037 18 0:00.000 0:00.000 1:50.314 52.8
2 222 Cairoli, Antonio ITA KTM 34:19.654 18 0:06.617 0:06.617 1:51.531 52.2
3 4 Tonus, Arnaud SUI Yam 34:23.336 18 0:10.299 0:03.682 1:51.144 52.4
4 91 Seewer, Jeremy SUI Yam 34:41.738 18 0:28.701 0:18.402 1:52.517 51.8
5 461 Febvre, Romain FRA Yam 34:44.772 18 0:31.735 0:03.034 1:52.039 52
6 25 Desalle, Clement BEL Kaw 34:48.366 18 0:35.329 0:03.594 1:52.296 51.9
7 27 Jasikonis, Arminas LTU Hus 34:48.873 18 0:35.836 0:00.507 1:52.388 51.8
8 77 Lupino, Alessandro ITA Kaw 35:02.005 18 0:48.968 0:13.132 1:52.711 51.7
9 33 Lieber, Julien BEL Kaw 35:11.607 18 0:58.570 0:09.602 1:52.049 52
10 7 Leok, Tanel EST Hus 35:12.466 18 0:59.429 0:00.859 1:53.303 51.4
11 259 Coldenhoff, Glenn NED KTM 35:13.440 18 1:00.403 0:00.974 1:53.986 51.1
12 128 Monticelli, Ivo ITA KTM 35:19.719 18 1:06.682 0:06.279 1:52.619 51.7
13 89 Van Horebeek, Jeremy BEL Hon 35:22.403 18 1:09.366 0:02.684 1:53.730 51.2
14 100 Searle, Tommy GBR Kaw 35:24.013 18 1:10.976 0:01.610 1:53.752 51.2
15 24 Simpson, Shaun GBR KTM 35:24.453 18 1:11.416 0:00.440 1:53.081 51.5
16 21 Paulin, Gautier FRA Yam 35:31.836 18 1:18.799 0:07.383 1:54.252 51
17 6 Paturel, Benoit FRA Kaw 35:34.628 18 1:21.591 0:02.792 1:54.590 50.8
18 22 Strijbos, Kevin BEL Yam 35:38.288 18 1:25.251 0:03.660 1:54.548 50.9
19 911 Tixier, Jordi FRA KTM 35:41.261 18 1:28.224 0:02.973 1:54.725 50.8
20 297 Gole, Anton SWE Yam 35:43.560 18 1:30.523 0:02.299 1:54.954 50.7
21 189 Bogers, Brian NED Hon 35:45.341 18 1:32.304 0:01.781 1:54.624 50.8
22 241 Desprey, Maxime FRA Hon 35:59.706 18 1:46.669 0:14.365 1:55.052 50.6
23 149 Ullrich, Dennis GER Hus 34:15.117 17 1 lap 1 lap 1:56.018 50.2
24 321 Bernardini, Samuele ITA Yam 34:18.173 17 1 lap 0:03.056 1:55.137 50.6
25 93 Bengtsson, Jonathan SWE KTM 34:21.878 17 1 lap 0:03.705 1:57.230 49.7
26 96 Zaragoza, Jorge ESP Yam 34:47.016 17 1 lap 0:25.138 1:54.935 50.7
27 471 Tarasov, Volodymyr UKR KTM 35:18.240 17 1 lap 0:31.224 1:58.636 49.1
28 555 Guryev, Artem RUS Hus 35:20.804 17 1 lap 0:02.564 1:58.440 49.2
29 34 De Waal, Micha-Boy NED Yam 35:21.556 17 1 lap 0:00.752 1:57.841 49.4
30 324 Charlier, Maxime FRA Hus 36:12.687 17 1 lap 0:51.131 1:59.330 48.8
31 41 Jonass, Pauls LAT Hus 27:34.823 14 4 laps 3 laps 1:53.826 51.2
32 777 Bobryshev, Evgeny RUS Kaw 22:38.130 11 7 laps 3 laps 1:54.965 50.7
33 38 Houzet, Dan FRA KTM 20:35.611 10 8 laps 1 lap 1:57.178 49.7
34 20 Aranda, Gregory FRA Kaw 18:55.941 9 9 laps 1 lap 1:55.591 50.4
35 152 Petrov, Petar BUL KTM 18:09.866 8 10 laps 1 lap 1:54.944 50.7
36 18 Brylyakov, Vsevolod RUS Yam 6:34.102 3 15 laps 5 laps 1:58.111 49.3
37 62 Gercar, Klemen SLO Hus 0:00.000 0 18 laps 3 laps 0:00.000 0

P # MXGP Race2 País Bike Time V Diff Gap M.V. Speed
1 243 Gajser, Tim SLO Hon 34:00.904 18 0:00.000 0:00.000 1:50.139 52.9
2 461 Febvre, Romain FRA Yam 34:06.279 18 0:05.375 0:05.375 1:50.034 53
3 4 Tonus, Arnaud SUI Yam 34:08.218 18 0:07.314 0:01.939 1:50.529 52.7
4 25 Desalle, Clement BEL Kaw 34:20.579 18 0:19.675 0:12.361 1:50.281 52.8
5 21 Paulin, Gautier FRA Yam 34:22.457 18 0:21.553 0:01.878 1:51.701 52.2
6 33 Lieber, Julien BEL Kaw 34:25.358 18 0:24.454 0:02.901 1:51.505 52.3
7 259 Coldenhoff, Glenn NED KTM 34:27.339 18 0:26.435 0:01.981 1:51.183 52.4
8 91 Seewer, Jeremy SUI Yam 34:28.783 18 0:27.879 0:01.444 1:51.554 52.2
9 89 Van Horebeek, Jeremy BEL Hon 34:53.994 18 0:53.090 0:25.211 1:52.184 51.9
10 22 Strijbos, Kevin BEL Yam 34:55.896 18 0:54.992 0:01.902 1:53.116 51.5
11 27 Jasikonis, Arminas LTU Hus 34:55.969 18 0:55.065 0:00.073 1:50.154 52.9
12 6 Paturel, Benoit FRA Kaw 35:01.096 18 1:00.192 0:05.127 1:53.533 51.3
13 100 Searle, Tommy GBR Kaw 35:03.599 18 1:02.695 0:02.503 1:51.520 52.2
14 24 Simpson, Shaun GBR KTM 35:05.306 18 1:04.402 0:01.707 1:53.339 51.4
15 189 Bogers, Brian NED Hon 35:12.801 18 1:11.897 0:07.495 1:53.068 51.5
16 77 Lupino, Alessandro ITA Kaw 35:18.061 18 1:17.157 0:05.260 1:52.504 51.8
17 222 Cairoli, Antonio ITA KTM 35:26.175 18 1:25.271 0:08.114 1:52.898 51.6
18 7 Leok, Tanel EST Hus 35:28.556 18 1:27.652 0:02.381 1:53.734 51.2
19 911 Tixier, Jordi FRA KTM 35:28.801 18 1:27.897 0:00.245 1:54.174 51
20 41 Jonass, Pauls LAT Hus 35:30.329 18 1:29.425 0:01.528 1:53.688 51.2
21 96 Zaragoza, Jorge ESP Yam 35:38.329 18 1:37.425 0:08.000 1:54.713 50.8
22 241 Desprey, Maxime FRA Hon 35:40.808 18 1:39.904 0:02.479 1:54.084 51.1
23 20 Aranda, Gregory FRA Kaw 35:43.449 18 1:42.545 0:02.641 1:54.954 50.7
24 297 Gole, Anton SWE Yam 35:56.496 18 1:55.592 0:13.047 1:55.724 50.3
25 149 Ullrich, Dennis GER Hus 34:02.799 17 1 lap 1 lap 1:54.904 50.7
26 18 Brylyakov, Vsevolod RUS Yam 34:14.634 17 1 lap 0:11.835 1:55.712 50.4
27 34 De Waal, Micha-Boy NED Yam 34:28.233 17 1 lap 0:13.599 1:56.156 50.2
28 128 Monticelli, Ivo ITA KTM 34:45.268 17 1 lap 0:17.035 1:53.148 51.5
29 555 Guryev, Artem RUS Hus 34:47.079 17 1 lap 0:01.811 1:57.349 49.6
30 471 Tarasov, Volodymyr UKR KTM 35:11.447 17 1 lap 0:24.368 1:58.733 49.1
31 62 Gercar, Klemen SLO Hus 36:05.163 17 1 lap 0:53.716 1:59.708 48.7
32 324 Charlier, Maxime FRA Hus 25:25.136 12 6 laps 5 laps 2:00.121 48.5
33 321 Bernardini, Samuele ITA Yam 20:09.109 10 8 laps 2 laps 1:54.345 51
34 777 Bobryshev, Evgeny RUS Kaw 20:39.715 10 8 laps 0:30.606 1:56.105 50.2
35 38 Houzet, Dan FRA KTM 6:45.657 3 15 laps 7 laps 1:59.540 48.7
36 93 Bengtsson, Jonathan SWE KTM 6:51.481 3 15 laps 0:05.824 2:01.431 48
37 152 Petrov, Petar BUL KTM 7:24.642 3 15 laps 0:33.161 1:56.955 49.8

Pódio
1. Tim Gajser, 50
2. Arnaud Tonus, 40
3. Romain Febvre, 38

MX2 - Jorge Prado amplia vantagem no campeonato


Jorge Prado

Vídeos



Resultados

P # MX2 Race1 País Bike Time V Diff Gap M.V. Speed
1 193 Geerts, Jago BEL Yam 34:36.015 18 0:00.000 0:00.000 1:52.180 51.9
2 61 Prado, Jorge ESP KTM 34:37.462 18 0:01.447 0:01.447 1:52.628 51.7
3 19 Olsen, Thomas Kjer DEN Hus 35:09.723 18 0:33.708 0:32.261 1:53.444 51.4
4 28 Vialle, Tom FRA KTM 35:21.255 18 0:45.240 0:11.532 1:53.919 51.1
5 46 Pootjes, Davy NED Hus 35:32.694 18 0:56.679 0:11.439 1:53.979 51.1
6 811 Sterry, Adam GBR Kaw 35:35.113 18 0:59.098 0:02.419 1:54.220 51
7 43 Evans, Mitchell AUS Hon 35:36.880 18 1:00.865 0:01.767 1:53.845 51.2
8 29 Jacobi, Henry GER Kaw 35:44.793 18 1:08.778 0:07.913 1:53.996 51.1
9 172 Boisrame, Mathys FRA Hon 35:45.953 18 1:09.938 0:01.160 1:54.494 50.9
10 57 Sanayei, Darian USA Kaw 35:53.558 18 1:17.543 0:07.605 1:54.719 50.8
11 101 Pichon, Zachary FRA Hon 35:58.295 18 1:22.280 0:04.737 1:54.829 50.7
12 919 Watson, Ben GBR Yam 36:00.014 18 1:23.999 0:01.719 1:53.946 51.1
13 53 Walsh, Dylan NZL Hus 36:03.058 18 1:27.043 0:03.044 1:56.943 49.8
14 44 Lesiardo, Morgan ITA KTM 36:03.689 18 1:27.674 0:00.631 1:55.794 50.3
15 98 Vaessen, Bas NED KTM 36:16.617 18 1:40.602 0:12.928 1:56.285 50.1
16 161 Östlund, Alvin SWE Hus 36:18.347 18 1:42.332 0:01.730 1:56.073 50.2
17 102 Sikyna, Richard SVK KTM 36:20.190 18 1:44.175 0:01.843 1:56.520 50
18 783 Toriani, Enzo FRA Hus 36:27.385 18 1:51.370 0:07.195 1:57.076 49.8
19 56 Pessoa, Gustavo BRA Kaw 36:29.371 18 1:53.356 0:01.986 1:57.542 49.6
20 253 Pancar, Jan SLO Yam 36:29.827 18 1:53.812 0:00.456 1:55.933 50.3
21 35 Harrison, Mitchell USA Kaw 36:35.077 18 1:59.062 0:05.250 1:56.115 50.2
22 747 Cervellin, Michele ITA Yam 33:28.942 17 1 lap 1 lap 1:53.602 51.3
23 32 Van doninck, Brent BEL Hon 34:41.445 17 1 lap 1:12.503 1:55.111 50.6
24 331 Freidig, Loris SUI Yam 34:43.075 17 1 lap 0:01.630 1:57.688 49.5
25 282 Kahrle, Hampus SWE KTM 34:44.618 17 1 lap 0:01.543 1:57.504 49.6
26 130 De Jong, Rene NED KTM 34:46.236 17 1 lap 0:01.618 1:57.876 49.4
27 51 Malaval, Adrien FRA Yam 34:50.514 17 1 lap 0:04.278 1:57.597 49.5
28 75 Roosiorg, Hardi EST KTM 34:51.022 17 1 lap 0:00.508 1:57.881 49.4
29 485 Savaste, Kim FIN KTM 35:02.769 17 1 lap 0:11.747 1:57.020 49.8
30 818 Hauquier, Jeremy FRA KTM 36:15.736 17 1 lap 1:12.967 2:00.282 48.4
31 225 Strubhart Moreau, Brian FRA Kaw 27:31.766 12 6 laps 5 laps 1:55.796 50.3
32 959 Renaux, Maxime FRA Yam 16:45.404 8 10 laps 4 laps 1:53.815 51.2
33 766 Sandner, Michael AUT KTM 6:40.727 3 15 laps 5 laps 1:57.106 49.8

P # MX2 Race1 País Bike Time V Diff Gap M.V. Speed
1 61 Prado, Jorge ESP KTM 34:50.867 18 0:00.000 0:00.000 1:52.746 51.7
2 193 Geerts, Jago BEL Yam 34:53.444 18 0:02.577 0:02.577 1:52.724 51.7
3 919 Watson, Ben GBR Yam 34:58.350 18 0:07.483 0:04.906 1:53.722 51.2
4 43 Evans, Mitchell AUS Hon 35:09.530 18 0:18.663 0:11.180 1:52.543 51.8
5 19 Olsen, Thomas Kjer DEN Hus 35:16.895 18 0:26.028 0:07.365 1:53.611 51.3
6 811 Sterry, Adam GBR Kaw 35:21.976 18 0:31.109 0:05.081 1:54.890 50.7
7 98 Vaessen, Bas NED KTM 35:25.902 18 0:35.035 0:03.926 1:54.757 50.8
8 46 Pootjes, Davy NED Hus 35:27.608 18 0:36.741 0:01.706 1:54.618 50.8
9 959 Renaux, Maxime FRA Yam 35:28.589 18 0:37.722 0:00.981 1:54.765 50.8
10 225 Strubhart Moreau, Brian FRA Kaw 35:37.011 18 0:46.144 0:08.422 1:54.865 50.7
11 747 Cervellin, Michele ITA Yam 35:39.751 18 0:48.884 0:02.740 1:55.283 50.5
12 253 Pancar, Jan SLO Yam 35:48.893 18 0:58.026 0:09.142 1:55.863 50.3
13 57 Sanayei, Darian USA Kaw 35:51.295 18 1:00.428 0:02.402 1:55.920 50.3
14 35 Harrison, Mitchell USA Kaw 35:54.416 18 1:03.549 0:03.121 1:55.788 50.3
15 101 Pichon, Zachary FRA Hon 35:55.979 18 1:05.112 0:01.563 1:54.815 50.7
16 102 Sikyna, Richard SVK KTM 35:56.342 18 1:05.475 0:00.363 1:55.560 50.4
17 29 Jacobi, Henry GER Kaw 36:03.652 18 1:12.785 0:07.310 1:54.598 50.8
18 161 Östlund, Alvin SWE Hus 36:04.892 18 1:14.025 0:01.240 1:56.273 50.1
19 44 Lesiardo, Morgan ITA KTM 36:05.898 18 1:15.031 0:01.006 1:56.049 50.2
20 485 Savaste, Kim FIN KTM 36:07.378 18 1:16.511 0:01.480 1:56.505 50
21 56 Pessoa, Gustavo BRA Kaw 36:19.421 18 1:28.554 0:12.043 1:56.479 50
22 32 Van doninck, Brent BEL Hon 36:23.633 18 1:32.766 0:04.212 1:57.124 49.7
23 75 Roosiorg, Hardi EST KTM 36:23.834 18 1:32.967 0:00.201 1:57.344 49.7
24 130 De Jong, Rene NED KTM 34:55.470 17 1 lap 1 lap 1:58.744 49.1
25 331 Freidig, Loris SUI Yam 34:59.800 17 1 lap 0:04.330 1:59.073 48.9
26 783 Toriani, Enzo FRA Hus 35:06.869 17 1 lap 0:07.069 1:58.102 49.3
27 282 Kahrle, Hampus SWE KTM 35:13.551 17 1 lap 0:06.682 1:59.201 48.9
28 28 Vialle, Tom FRA KTM 35:23.866 17 1 lap 0:10.315 1:56.388 50.1
29 51 Malaval, Adrien FRA Yam 35:57.986 17 1 lap 0:34.120 1:59.379 48.8
30 766 Sandner, Michael AUT KTM 33:50.633 16 2 laps 1 lap 1:58.565 49.1
31 818 Hauquier, Jeremy FRA KTM 36:01.142 16 2 laps 2:10.509 2:04.071 47
32 53 Walsh, Dylan NZL Hus 18:44.576 9 9 laps 7 laps 1:57.864 49.4




Curso MotoX
JPS Racing

© 2000 - 2018 MotoX MX1 Internet